MSC Ines — 3EFZ3 — position and weather

sailwx.info

Track history (hours):
 
Tides and Currents Weather Stations Pressure Air Temp Water Temp Dewpoint Dewpoint Depression Visibility Wind Speed Wind Dir Waves Ship Positions

MSC Ines

Last reported at 2014-Sep-14 06:08 UTC. Time now 2014-Sep-18 05:43 UTC.
Position N 38°10' W 135°18'.

Length 349 m; draft 13.3 m.

Type: Ship (hazmat cat A). MMSI: 356112000.

Date/timePositionNaut miles runAvg speedWind from/ knotsBaromVisibWave heightAir tempDewpointWater temp
2014-Sep-14 06:08N 38°10' W 135°18'3420.4
2014-Sep-14 04:28N 37°52' W 134°41'6020.3
2014-Sep-14 01:29N 37°16' W 133°40'16920.2
2014-Sep-13 17:08N 35°38' W 130°49'1320.1
2014-Sep-13 16:28N 35°30' W 130°36'2020.2
2014-Sep-13 15:29N 35°18' W 130°17'4220.5
2014-Sep-13 13:27N 34°53' W 129°36'4320.0
2014-Sep-13 11:18N 34°28' W 128°53'8019.8
2014-Sep-13 07:15N 33°42' W 127°34'17620.0
2014-Sep-12 22:27N 31°58' W 124°45'6120.2
2014-Sep-12 19:27N 31°22' W 123°47'1920.0
2014-Sep-12 18:31N 31°11' W 123°29'1919.9
2014-Sep-12 17:33N 31°00' W 123°11'2119.8
2014-Sep-12 16:31N 30°48' W 122°52'2219.9
2014-Sep-12 15:23N 30°35' W 122°31'1719.7
2014-Sep-12 14:31N 30°25' W 122°15'2419.9
2014-Sep-12 13:18N 30°11' W 121°52'1819.9
2014-Sep-12 12:25N 30°00' W 121°36'1719.8
2014-Sep-12 11:33N 29°50' W 121°20'2120.1
2014-Sep-12 10:30N 29°36' W 121°01'1920.1
2014-Sep-12 09:33N 29°24' W 120°44'2120.4
2014-Sep-12 08:32N 29°11' W 120°26'2020.4
2014-Sep-12 07:32N 28°58' W 120°08'8620.4
2014-Sep-12 03:20N 28°04' W 118°53'1720.4
2014-Sep-12 02:29N 27°52' W 118°38'4020.2
2014-Sep-12 00:30N 27°28' W 118°02'  
Track history (hours):
 
Tides and Currents Weather Stations Pressure Air Temp Water Temp Dewpoint Dewpoint Depression Visibility Wind Speed Wind Dir Waves Ship Positions

MSC Ines

Last reported at 2014-Sep-14 06:08 UTC. Time now 2014-Sep-18 05:43 UTC.
Position N 38°10' W 135°18'.

Length 349 m; draft 13.3 m.

Type: Ship (hazmat cat A). MMSI: 356112000.

Date/timePositionNaut miles runAvg speedWind from/ knotsBaromVisibWave heightAir tempDewpointWater temp
2014-Sep-14 06:08N 38°10' W 135°18'3420.4
2014-Sep-14 04:28N 37°52' W 134°41'6020.3
2014-Sep-14 01:29N 37°16' W 133°40'16920.2
2014-Sep-13 17:08N 35°38' W 130°49'1320.1
2014-Sep-13 16:28N 35°30' W 130°36'2020.2
2014-Sep-13 15:29N 35°18' W 130°17'4220.5
2014-Sep-13 13:27N 34°53' W 129°36'4320.0
2014-Sep-13 11:18N 34°28' W 128°53'8019.8
2014-Sep-13 07:15N 33°42' W 127°34'17620.0
2014-Sep-12 22:27N 31°58' W 124°45'6120.2
2014-Sep-12 19:27N 31°22' W 123°47'1920.0
2014-Sep-12 18:31N 31°11' W 123°29'1919.9
2014-Sep-12 17:33N 31°00' W 123°11'2119.8
2014-Sep-12 16:31N 30°48' W 122°52'2219.9
2014-Sep-12 15:23N 30°35' W 122°31'1719.7
2014-Sep-12 14:31N 30°25' W 122°15'2419.9
2014-Sep-12 13:18N 30°11' W 121°52'1819.9
2014-Sep-12 12:25N 30°00' W 121°36'1719.8
2014-Sep-12 11:33N 29°50' W 121°20'2120.1
2014-Sep-12 10:30N 29°36' W 121°01'1920.1
2014-Sep-12 09:33N 29°24' W 120°44'2120.4
2014-Sep-12 08:32N 29°11' W 120°26'2020.4
2014-Sep-12 07:32N 28°58' W 120°08'8620.4
2014-Sep-12 03:20N 28°04' W 118°53'1720.4
2014-Sep-12 02:29N 27°52' W 118°38'4020.2
2014-Sep-12 00:30N 27°28' W 118°02'  

Dump ship's entire track history